sensor_id;sensor_type;location;lat;lon;timestamp;P1;durP1;ratioP1;P2;durP2;ratioP2
77738;SDS011;66904;59.926;30.404;2023-12-22T00:02:48;2.10;;;0.93;;
77738;SDS011;66904;59.926;30.404;2023-12-22T00:07:59;3.10;;;1.15;;
77738;SDS011;66904;59.926;30.404;2023-12-22T00:13:10;3.20;;;0.93;;
77738;SDS011;66904;59.926;30.404;2023-12-22T00:18:21;2.58;;;1.00;;
77738;SDS011;66904;59.926;30.404;2023-12-22T00:23:32;3.33;;;1.00;;
77738;SDS011;66904;59.926;30.404;2023-12-22T00:28:46;2.70;;;0.93;;
77738;SDS011;66904;59.926;30.404;2023-12-22T00:33:57;2.05;;;0.98;;
77738;SDS011;66904;59.926;30.404;2023-12-22T00:39:08;3.42;;;1.20;;
77738;SDS011;66904;59.926;30.404;2023-12-22T00:44:19;2.88;;;0.85;;
77738;SDS011;66904;59.926;30.404;2023-12-22T00:49:29;3.50;;;1.50;;
77738;SDS011;66904;59.926;30.404;2023-12-22T00:54:40;2.22;;;1.05;;
77738;SDS011;66904;59.926;30.404;2023-12-22T00:59:51;3.75;;;1.65;;
77738;SDS011;66904;59.926;30.404;2023-12-22T01:05:02;3.83;;;1.98;;
77738;SDS011;66904;59.926;30.404;2023-12-22T01:10:14;3.55;;;1.80;;
77738;SDS011;66904;59.926;30.404;2023-12-22T01:15:25;4.05;;;1.92;;
77738;SDS011;66904;59.926;30.404;2023-12-22T01:20:38;4.70;;;2.00;;
77738;SDS011;66904;59.926;30.404;2023-12-22T01:25:48;7.97;;;2.40;;
77738;SDS011;66904;59.926;30.404;2023-12-22T01:31:00;6.03;;;2.40;;
77738;SDS011;66904;59.926;30.404;2023-12-22T01:36:11;7.25;;;2.97;;
77738;SDS011;66904;59.926;30.404;2023-12-22T01:41:21;5.55;;;2.60;;
77738;SDS011;66904;59.926;30.404;2023-12-22T01:46:32;5.45;;;2.75;;
77738;SDS011;66904;59.926;30.404;2023-12-22T01:51:44;3.65;;;1.42;;
77738;SDS011;66904;59.926;30.404;2023-12-22T01:57:03;4.75;;;2.45;;
77738;SDS011;66904;59.926;30.404;2023-12-22T02:02:14;5.82;;;1.98;;
77738;SDS011;66904;59.926;30.404;2023-12-22T02:07:25;4.75;;;1.77;;
77738;SDS011;66904;59.926;30.404;2023-12-22T02:12:38;3.90;;;1.35;;
77738;SDS011;66904;59.926;30.404;2023-12-22T02:17:52;3.92;;;1.27;;
77738;SDS011;66904;59.926;30.404;2023-12-22T02:23:29;5.35;;;1.80;;
77738;SDS011;66904;59.926;30.404;2023-12-22T02:28:40;4.00;;;0.90;;
77738;SDS011;66904;59.926;30.404;2023-12-22T02:33:52;2.55;;;0.98;;
77738;SDS011;66904;59.926;30.404;2023-12-22T02:39:05;3.08;;;1.02;;
77738;SDS011;66904;59.926;30.404;2023-12-22T02:44:17;3.17;;;1.50;;
77738;SDS011;66904;59.926;30.404;2023-12-22T02:49:28;2.78;;;1.13;;
77738;SDS011;66904;59.926;30.404;2023-12-22T02:54:39;3.85;;;1.27;;
77738;SDS011;66904;59.926;30.404;2023-12-22T02:59:50;1.85;;;1.10;;
77738;SDS011;66904;59.926;30.404;2023-12-22T03:05:01;2.30;;;1.02;;
77738;SDS011;66904;59.926;30.404;2023-12-22T03:10:14;2.35;;;0.57;;
77738;SDS011;66904;59.926;30.404;2023-12-22T03:15:27;2.17;;;0.90;;
77738;SDS011;66904;59.926;30.404;2023-12-22T03:20:38;1.90;;;0.68;;
77738;SDS011;66904;59.926;30.404;2023-12-22T03:25:49;1.85;;;0.88;;
77738;SDS011;66904;59.926;30.404;2023-12-22T03:31:00;2.95;;;1.20;;
77738;SDS011;66904;59.926;30.404;2023-12-22T03:36:11;2.35;;;0.88;;
77738;SDS011;66904;59.926;30.404;2023-12-22T03:41:21;1.67;;;0.68;;
77738;SDS011;66904;59.926;30.404;2023-12-22T03:46:36;1.95;;;0.80;;
77738;SDS011;66904;59.926;30.404;2023-12-22T03:51:46;2.22;;;1.08;;
77738;SDS011;66904;59.926;30.404;2023-12-22T03:56:57;2.00;;;0.85;;
77738;SDS011;66904;59.926;30.404;2023-12-22T04:02:08;2.15;;;0.95;;
77738;SDS011;66904;59.926;30.404;2023-12-22T04:07:19;2.85;;;0.82;;
77738;SDS011;66904;59.926;30.404;2023-12-22T04:12:30;4.03;;;1.33;;
77738;SDS011;66904;59.926;30.404;2023-12-22T04:17:41;2.38;;;1.02;;
77738;SDS011;66904;59.926;30.404;2023-12-22T04:22:52;2.83;;;1.20;;
77738;SDS011;66904;59.926;30.404;2023-12-22T04:28:03;1.88;;;0.88;;
77738;SDS011;66904;59.926;30.404;2023-12-22T04:33:14;2.50;;;0.85;;
77738;SDS011;66904;59.926;30.404;2023-12-22T04:38:25;2.90;;;1.17;;
77738;SDS011;66904;59.926;30.404;2023-12-22T04:43:35;1.20;;;0.43;;
77738;SDS011;66904;59.926;30.404;2023-12-22T04:48:46;1.88;;;0.77;;
77738;SDS011;66904;59.926;30.404;2023-12-22T04:53:57;1.63;;;0.77;;
77738;SDS011;66904;59.926;30.404;2023-12-22T04:59:08;2.05;;;0.90;;
77738;SDS011;66904;59.926;30.404;2023-12-22T05:04:19;3.17;;;1.13;;
77738;SDS011;66904;59.926;30.404;2023-12-22T05:09:30;2.60;;;1.08;;
77738;SDS011;66904;59.926;30.404;2023-12-22T05:14:41;1.58;;;0.60;;
77738;SDS011;66904;59.926;30.404;2023-12-22T05:19:51;2.17;;;0.95;;
77738;SDS011;66904;59.926;30.404;2023-12-22T05:25:02;2.58;;;1.02;;
77738;SDS011;66904;59.926;30.404;2023-12-22T05:30:14;1.88;;;0.95;;
77738;SDS011;66904;59.926;30.404;2023-12-22T05:35:25;2.60;;;0.85;;
77738;SDS011;66904;59.926;30.404;2023-12-22T05:40:36;2.00;;;0.77;;
77738;SDS011;66904;59.926;30.404;2023-12-22T05:45:47;2.53;;;1.00;;
77738;SDS011;66904;59.926;30.404;2023-12-22T05:50:58;2.03;;;1.02;;
77738;SDS011;66904;59.926;30.404;2023-12-22T05:56:18;2.30;;;0.85;;
77738;SDS011;66904;59.926;30.404;2023-12-22T06:01:30;1.65;;;0.65;;
77738;SDS011;66904;59.926;30.404;2023-12-22T06:06:40;1.88;;;0.70;;
77738;SDS011;66904;59.926;30.404;2023-12-22T06:11:51;1.92;;;0.82;;
77738;SDS011;66904;59.926;30.404;2023-12-22T06:17:02;3.00;;;0.95;;
77738;SDS011;66904;59.926;30.404;2023-12-22T06:22:13;2.22;;;1.00;;
77738;SDS011;66904;59.926;30.404;2023-12-22T06:27:24;1.50;;;0.68;;
77738;SDS011;66904;59.926;30.404;2023-12-22T06:32:35;2.05;;;0.77;;
77738;SDS011;66904;59.926;30.404;2023-12-22T06:37:50;1.38;;;0.45;;
77738;SDS011;66904;59.926;30.404;2023-12-22T06:43:02;0.85;;;0.40;;
77738;SDS011;66904;59.926;30.404;2023-12-22T06:48:13;2.65;;;1.27;;
77738;SDS011;66904;59.926;30.404;2023-12-22T06:53:26;3.00;;;1.05;;
77738;SDS011;66904;59.926;30.404;2023-12-22T06:58:37;1.90;;;0.70;;
77738;SDS011;66904;59.926;30.404;2023-12-22T07:03:48;1.63;;;0.73;;
77738;SDS011;66904;59.926;30.404;2023-12-22T07:14:22;2.05;;;0.80;;
77738;SDS011;66904;59.926;30.404;2023-12-22T07:19:33;3.45;;;0.90;;
77738;SDS011;66904;59.926;30.404;2023-12-22T07:24:45;1.92;;;0.90;;
77738;SDS011;66904;59.926;30.404;2023-12-22T07:30:00;3.28;;;0.90;;
77738;SDS011;66904;59.926;30.404;2023-12-22T07:35:11;1.98;;;0.90;;
77738;SDS011;66904;59.926;30.404;2023-12-22T07:40:22;2.20;;;0.82;;
77738;SDS011;66904;59.926;30.404;2023-12-22T07:45:33;1.33;;;0.63;;
77738;SDS011;66904;59.926;30.404;2023-12-22T07:50:44;2.05;;;0.75;;
77738;SDS011;66904;59.926;30.404;2023-12-22T07:55:55;0.80;;;0.40;;
77738;SDS011;66904;59.926;30.404;2023-12-22T08:01:09;0.93;;;0.52;;
77738;SDS011;66904;59.926;30.404;2023-12-22T08:06:20;1.60;;;0.70;;
77738;SDS011;66904;59.926;30.404;2023-12-22T08:11:31;1.27;;;0.50;;
77738;SDS011;66904;59.926;30.404;2023-12-22T08:16:42;1.92;;;0.70;;
77738;SDS011;66904;59.926;30.404;2023-12-22T08:21:55;1.52;;;0.47;;
77738;SDS011;66904;59.926;30.404;2023-12-22T08:27:06;1.88;;;0.82;;
77738;SDS011;66904;59.926;30.404;2023-12-22T08:32:17;0.82;;;0.40;;
77738;SDS011;66904;59.926;30.404;2023-12-22T08:37:27;1.33;;;0.75;;
77738;SDS011;66904;59.926;30.404;2023-12-22T08:42:38;1.35;;;0.52;;
77738;SDS011;66904;59.926;30.404;2023-12-22T08:47:50;1.42;;;0.57;;
77738;SDS011;66904;59.926;30.404;2023-12-22T08:53:01;1.48;;;0.80;;
77738;SDS011;66904;59.926;30.404;2023-12-22T08:58:11;2.03;;;1.10;;
77738;SDS011;66904;59.926;30.404;2023-12-22T09:03:22;1.08;;;0.43;;
77738;SDS011;66904;59.926;30.404;2023-12-22T09:08:34;0.43;;;0.20;;
77738;SDS011;66904;59.926;30.404;2023-12-22T09:13:45;1.05;;;0.52;;
77738;SDS011;66904;59.926;30.404;2023-12-22T09:18:56;1.48;;;0.57;;
77738;SDS011;66904;59.926;30.404;2023-12-22T09:24:07;1.45;;;0.60;;
77738;SDS011;66904;59.926;30.404;2023-12-22T09:29:18;0.82;;;0.30;;
77738;SDS011;66904;59.926;30.404;2023-12-22T09:34:29;1.30;;;0.50;;
77738;SDS011;66904;59.926;30.404;2023-12-22T09:39:40;0.75;;;0.38;;
77738;SDS011;66904;59.926;30.404;2023-12-22T09:44:51;1.33;;;0.60;;
77738;SDS011;66904;59.926;30.404;2023-12-22T09:50:04;0.60;;;0.30;;
77738;SDS011;66904;59.926;30.404;2023-12-22T09:55:17;0.98;;;0.47;;
77738;SDS011;66904;59.926;30.404;2023-12-22T10:00:31;0.88;;;0.40;;
77738;SDS011;66904;59.926;30.404;2023-12-22T10:05:43;0.55;;;0.30;;
77738;SDS011;66904;59.926;30.404;2023-12-22T10:10:54;1.90;;;0.60;;
77738;SDS011;66904;59.926;30.404;2023-12-22T10:16:06;0.57;;;0.25;;
77738;SDS011;66904;59.926;30.404;2023-12-22T10:21:17;1.10;;;0.32;;
77738;SDS011;66904;59.926;30.404;2023-12-22T10:26:28;0.75;;;0.30;;
77738;SDS011;66904;59.926;30.404;2023-12-22T10:31:40;0.77;;;0.30;;
77738;SDS011;66904;59.926;30.404;2023-12-22T10:36:51;1.23;;;0.55;;
77738;SDS011;66904;59.926;30.404;2023-12-22T10:42:02;1.02;;;0.60;;
77738;SDS011;66904;59.926;30.404;2023-12-22T10:47:13;0.95;;;0.50;;
77738;SDS011;66904;59.926;30.404;2023-12-22T10:52:24;0.55;;;0.35;;
77738;SDS011;66904;59.926;30.404;2023-12-22T10:57:35;1.10;;;0.40;;
77738;SDS011;66904;59.926;30.404;2023-12-22T11:02:48;0.63;;;0.30;;
77738;SDS011;66904;59.926;30.404;2023-12-22T11:08:06;1.27;;;0.50;;
77738;SDS011;66904;59.926;30.404;2023-12-22T11:13:21;0.43;;;0.20;;
77738;SDS011;66904;59.926;30.404;2023-12-22T11:18:33;1.00;;;0.30;;
77738;SDS011;66904;59.926;30.404;2023-12-22T11:23:47;0.60;;;0.20;;
77738;SDS011;66904;59.926;30.404;2023-12-22T11:28:59;0.32;;;0.20;;
77738;SDS011;66904;59.926;30.404;2023-12-22T11:34:13;0.68;;;0.20;;
77738;SDS011;66904;59.926;30.404;2023-12-22T11:39:25;1.48;;;0.20;;
77738;SDS011;66904;59.926;30.404;2023-12-22T11:44:36;0.57;;;0.20;;
77738;SDS011;66904;59.926;30.404;2023-12-22T11:49:47;0.65;;;0.13;;
77738;SDS011;66904;59.926;30.404;2023-12-22T11:55:00;0.88;;;0.30;;
77738;SDS011;66904;59.926;30.404;2023-12-22T12:05:33;0.32;;;0.20;;
77738;SDS011;66904;59.926;30.404;2023-12-22T12:21:14;0.63;;;0.30;;
77738;SDS011;66904;59.926;30.404;2023-12-22T12:26:26;0.20;;;0.10;;
77738;SDS011;66904;59.926;30.404;2023-12-22T12:31:38;0.85;;;0.25;;
77738;SDS011;66904;59.926;30.404;2023-12-22T12:36:52;1.02;;;0.30;;
77738;SDS011;66904;59.926;30.404;2023-12-22T12:42:05;0.17;;;0.10;;
77738;SDS011;66904;59.926;30.404;2023-12-22T12:52:30;1.02;;;0.40;;
77738;SDS011;66904;59.926;30.404;2023-12-22T12:57:41;0.50;;;0.15;;
77738;SDS011;66904;59.926;30.404;2023-12-22T13:02:55;0.57;;;0.20;;
77738;SDS011;66904;59.926;30.404;2023-12-22T13:08:07;0.40;;;0.10;;
77738;SDS011;66904;59.926;30.404;2023-12-22T13:13:22;0.85;;;0.22;;
77738;SDS011;66904;59.926;30.404;2023-12-22T13:18:33;0.63;;;0.30;;
77738;SDS011;66904;59.926;30.404;2023-12-22T13:23:44;0.52;;;0.40;;
77738;SDS011;66904;59.926;30.404;2023-12-22T13:28:57;0.57;;;0.17;;
77738;SDS011;66904;59.926;30.404;2023-12-22T13:34:09;0.45;;;0.20;;
77738;SDS011;66904;59.926;30.404;2023-12-22T13:39:21;1.40;;;0.30;;
77738;SDS011;66904;59.926;30.404;2023-12-22T13:44:42;1.20;;;0.40;;
77738;SDS011;66904;59.926;30.404;2023-12-22T13:49:54;0.88;;;0.40;;
77738;SDS011;66904;59.926;30.404;2023-12-22T14:00:24;0.80;;;0.25;;
77738;SDS011;66904;59.926;30.404;2023-12-22T14:05:35;0.65;;;0.30;;
77738;SDS011;66904;59.926;30.404;2023-12-22T14:10:46;0.43;;;0.20;;
77738;SDS011;66904;59.926;30.404;2023-12-22T14:15:58;0.40;;;0.20;;
77738;SDS011;66904;59.926;30.404;2023-12-22T14:21:09;1.17;;;0.50;;
77738;SDS011;66904;59.926;30.404;2023-12-22T14:26:20;0.75;;;0.20;;
77738;SDS011;66904;59.926;30.404;2023-12-22T14:31:31;1.30;;;0.60;;
77738;SDS011;66904;59.926;30.404;2023-12-22T14:36:41;1.15;;;0.50;;
77738;SDS011;66904;59.926;30.404;2023-12-22T14:41:53;0.68;;;0.40;;
77738;SDS011;66904;59.926;30.404;2023-12-22T14:47:07;1.23;;;0.45;;
77738;SDS011;66904;59.926;30.404;2023-12-22T14:52:18;1.10;;;0.63;;
77738;SDS011;66904;59.926;30.404;2023-12-22T14:57:30;1.25;;;0.60;;
77738;SDS011;66904;59.926;30.404;2023-12-22T15:02:41;1.35;;;0.65;;
77738;SDS011;66904;59.926;30.404;2023-12-22T15:07:52;0.70;;;0.35;;
77738;SDS011;66904;59.926;30.404;2023-12-22T15:13:05;0.77;;;0.40;;
77738;SDS011;66904;59.926;30.404;2023-12-22T15:18:16;0.95;;;0.45;;
77738;SDS011;66904;59.926;30.404;2023-12-22T15:23:27;1.10;;;0.57;;
77738;SDS011;66904;59.926;30.404;2023-12-22T15:28:39;2.00;;;0.80;;
77738;SDS011;66904;59.926;30.404;2023-12-22T15:33:49;1.05;;;0.68;;
77738;SDS011;66904;59.926;30.404;2023-12-22T15:39:00;1.52;;;0.50;;
77738;SDS011;66904;59.926;30.404;2023-12-22T15:44:12;2.22;;;0.77;;
77738;SDS011;66904;59.926;30.404;2023-12-22T15:49:23;1.83;;;0.75;;
77738;SDS011;66904;59.926;30.404;2023-12-22T15:54:34;1.70;;;0.73;;
77738;SDS011;66904;59.926;30.404;2023-12-22T15:59:45;1.67;;;0.75;;
77738;SDS011;66904;59.926;30.404;2023-12-22T16:04:56;1.50;;;0.70;;
77738;SDS011;66904;59.926;30.404;2023-12-22T16:10:07;0.88;;;0.55;;
77738;SDS011;66904;59.926;30.404;2023-12-22T16:15:19;1.63;;;0.65;;
77738;SDS011;66904;59.926;30.404;2023-12-22T16:20:30;1.40;;;0.60;;
77738;SDS011;66904;59.926;30.404;2023-12-22T16:25:41;1.17;;;0.65;;
77738;SDS011;66904;59.926;30.404;2023-12-22T16:30:53;2.38;;;0.93;;
77738;SDS011;66904;59.926;30.404;2023-12-22T16:36:08;2.08;;;0.82;;
77738;SDS011;66904;59.926;30.404;2023-12-22T16:41:20;1.50;;;0.70;;
77738;SDS011;66904;59.926;30.404;2023-12-22T16:46:32;1.73;;;0.75;;
77738;SDS011;66904;59.926;30.404;2023-12-22T16:51:43;1.67;;;1.02;;
77738;SDS011;66904;59.926;30.404;2023-12-22T16:56:54;1.65;;;0.75;;
77738;SDS011;66904;59.926;30.404;2023-12-22T17:02:05;2.45;;;0.95;;
77738;SDS011;66904;59.926;30.404;2023-12-22T17:07:16;1.70;;;0.63;;
77738;SDS011;66904;59.926;30.404;2023-12-22T17:12:28;1.40;;;0.75;;
77738;SDS011;66904;59.926;30.404;2023-12-22T17:17:39;2.20;;;1.00;;
77738;SDS011;66904;59.926;30.404;2023-12-22T17:22:50;1.52;;;0.80;;
77738;SDS011;66904;59.926;30.404;2023-12-22T17:28:01;2.08;;;1.00;;
77738;SDS011;66904;59.926;30.404;2023-12-22T17:33:12;2.05;;;0.70;;
77738;SDS011;66904;59.926;30.404;2023-12-22T17:38:23;1.52;;;0.73;;
77738;SDS011;66904;59.926;30.404;2023-12-22T17:43:34;2.38;;;1.08;;
77738;SDS011;66904;59.926;30.404;2023-12-22T17:48:44;2.00;;;0.88;;
77738;SDS011;66904;59.926;30.404;2023-12-22T17:53:55;3.75;;;1.17;;
77738;SDS011;66904;59.926;30.404;2023-12-22T17:59:06;1.98;;;1.10;;
77738;SDS011;66904;59.926;30.404;2023-12-22T18:04:17;2.40;;;1.17;;
77738;SDS011;66904;59.926;30.404;2023-12-22T18:09:28;1.73;;;1.13;;
77738;SDS011;66904;59.926;30.404;2023-12-22T18:14:39;2.05;;;1.10;;
77738;SDS011;66904;59.926;30.404;2023-12-22T18:19:50;1.80;;;1.10;;
77738;SDS011;66904;59.926;30.404;2023-12-22T18:25:01;1.90;;;1.00;;
77738;SDS011;66904;59.926;30.404;2023-12-22T18:30:13;1.55;;;0.80;;
77738;SDS011;66904;59.926;30.404;2023-12-22T18:35:25;2.25;;;1.13;;
77738;SDS011;66904;59.926;30.404;2023-12-22T18:40:36;1.67;;;0.85;;
77738;SDS011;66904;59.926;30.404;2023-12-22T18:45:48;2.15;;;0.80;;
77738;SDS011;66904;59.926;30.404;2023-12-22T18:50:58;1.35;;;0.70;;
77738;SDS011;66904;59.926;30.404;2023-12-22T18:56:10;1.90;;;1.08;;
77738;SDS011;66904;59.926;30.404;2023-12-22T19:01:21;2.10;;;0.88;;
77738;SDS011;66904;59.926;30.404;2023-12-22T19:06:32;2.03;;;0.70;;
77738;SDS011;66904;59.926;30.404;2023-12-22T19:11:43;2.20;;;0.70;;
77738;SDS011;66904;59.926;30.404;2023-12-22T19:16:54;1.10;;;0.60;;
77738;SDS011;66904;59.926;30.404;2023-12-22T19:22:05;2.13;;;0.82;;
77738;SDS011;66904;59.926;30.404;2023-12-22T19:27:16;1.80;;;0.80;;
77738;SDS011;66904;59.926;30.404;2023-12-22T19:32:27;1.40;;;0.68;;
77738;SDS011;66904;59.926;30.404;2023-12-22T19:37:38;2.08;;;0.80;;
77738;SDS011;66904;59.926;30.404;2023-12-22T19:42:49;1.33;;;0.70;;
77738;SDS011;66904;59.926;30.404;2023-12-22T19:48:00;1.48;;;0.70;;
77738;SDS011;66904;59.926;30.404;2023-12-22T19:53:11;1.58;;;0.68;;
77738;SDS011;66904;59.926;30.404;2023-12-22T19:58:22;1.17;;;0.60;;
77738;SDS011;66904;59.926;30.404;2023-12-22T20:03:33;2.13;;;0.85;;
77738;SDS011;66904;59.926;30.404;2023-12-22T20:08:44;1.63;;;0.75;;
77738;SDS011;66904;59.926;30.404;2023-12-22T20:13:55;1.17;;;0.50;;
77738;SDS011;66904;59.926;30.404;2023-12-22T20:19:05;0.70;;;0.40;;
77738;SDS011;66904;59.926;30.404;2023-12-22T20:24:16;3.33;;;0.50;;
77738;SDS011;66904;59.926;30.404;2023-12-22T20:29:27;0.90;;;0.40;;
77738;SDS011;66904;59.926;30.404;2023-12-22T20:34:38;0.85;;;0.45;;
77738;SDS011;66904;59.926;30.404;2023-12-22T20:39:49;0.80;;;0.38;;
77738;SDS011;66904;59.926;30.404;2023-12-22T20:45:00;1.15;;;0.57;;
77738;SDS011;66904;59.926;30.404;2023-12-22T20:50:11;0.70;;;0.30;;
77738;SDS011;66904;59.926;30.404;2023-12-22T20:55:22;1.08;;;0.43;;
77738;SDS011;66904;59.926;30.404;2023-12-22T21:00:32;1.33;;;0.57;;
77738;SDS011;66904;59.926;30.404;2023-12-22T21:05:44;1.85;;;0.57;;
77738;SDS011;66904;59.926;30.404;2023-12-22T21:10:55;1.00;;;0.50;;
77738;SDS011;66904;59.926;30.404;2023-12-22T21:16:06;0.82;;;0.40;;
77738;SDS011;66904;59.926;30.404;2023-12-22T21:21:17;0.88;;;0.30;;
77738;SDS011;66904;59.926;30.404;2023-12-22T21:26:29;0.85;;;0.40;;
77738;SDS011;66904;59.926;30.404;2023-12-22T21:31:43;0.68;;;0.35;;
77738;SDS011;66904;59.926;30.404;2023-12-22T21:36:54;0.82;;;0.43;;
77738;SDS011;66904;59.926;30.404;2023-12-22T21:42:05;1.08;;;0.32;;
77738;SDS011;66904;59.926;30.404;2023-12-22T21:47:16;0.90;;;0.45;;
77738;SDS011;66904;59.926;30.404;2023-12-22T21:52:27;0.88;;;0.43;;
77738;SDS011;66904;59.926;30.404;2023-12-22T21:57:38;0.80;;;0.43;;
77738;SDS011;66904;59.926;30.404;2023-12-22T22:03:13;1.20;;;0.28;;
77738;SDS011;66904;59.926;30.404;2023-12-22T22:08:24;0.60;;;0.30;;
77738;SDS011;66904;59.926;30.404;2023-12-22T22:13:35;1.38;;;0.30;;
77738;SDS011;66904;59.926;30.404;2023-12-22T22:18:46;1.33;;;0.50;;
77738;SDS011;66904;59.926;30.404;2023-12-22T22:23:57;1.73;;;0.57;;
77738;SDS011;66904;59.926;30.404;2023-12-22T22:29:08;0.35;;;0.20;;
77738;SDS011;66904;59.926;30.404;2023-12-22T22:34:21;1.05;;;0.35;;
77738;SDS011;66904;59.926;30.404;2023-12-22T22:39:32;0.73;;;0.30;;
77738;SDS011;66904;59.926;30.404;2023-12-22T22:44:44;0.68;;;0.30;;
77738;SDS011;66904;59.926;30.404;2023-12-22T22:49:55;1.05;;;0.43;;
77738;SDS011;66904;59.926;30.404;2023-12-22T22:55:06;0.85;;;0.52;;
77738;SDS011;66904;59.926;30.404;2023-12-22T23:00:17;1.27;;;0.40;;
77738;SDS011;66904;59.926;30.404;2023-12-22T23:05:38;0.57;;;0.25;;
77738;SDS011;66904;59.926;30.404;2023-12-22T23:10:48;0.50;;;0.30;;
77738;SDS011;66904;59.926;30.404;2023-12-22T23:15:59;0.95;;;0.38;;
77738;SDS011;66904;59.926;30.404;2023-12-22T23:21:10;0.95;;;0.40;;
77738;SDS011;66904;59.926;30.404;2023-12-22T23:26:21;0.98;;;0.40;;
77738;SDS011;66904;59.926;30.404;2023-12-22T23:31:32;0.77;;;0.30;;
77738;SDS011;66904;59.926;30.404;2023-12-22T23:36:43;0.47;;;0.20;;
77738;SDS011;66904;59.926;30.404;2023-12-22T23:41:54;0.80;;;0.32;;
77738;SDS011;66904;59.926;30.404;2023-12-22T23:47:06;1.13;;;0.50;;
77738;SDS011;66904;59.926;30.404;2023-12-22T23:52:16;0.50;;;0.30;;
77738;SDS011;66904;59.926;30.404;2023-12-22T23:57:27;1.30;;;0.52;;
